sensor_id;sensor_type;location;lat;lon;timestamp;P1;durP1;ratioP1;P2;durP2;ratioP2
61978;SDS011;47938;48.176;16.414;2023-02-15T00:01:58;26.15;;;17.60;;
61978;SDS011;47938;48.176;16.414;2023-02-15T00:04:24;27.52;;;15.88;;
61978;SDS011;47938;48.176;16.414;2023-02-15T00:06:50;30.00;;;18.08;;
61978;SDS011;47938;48.176;16.414;2023-02-15T00:09:16;25.65;;;16.95;;
61978;SDS011;47938;48.176;16.414;2023-02-15T00:11:42;23.50;;;16.52;;
61978;SDS011;47938;48.176;16.414;2023-02-15T00:14:15;25.30;;;15.82;;
61978;SDS011;47938;48.176;16.414;2023-02-15T00:16:43;26.98;;;16.38;;
61978;SDS011;47938;48.176;16.414;2023-02-15T00:19:10;23.05;;;16.33;;
61978;SDS011;47938;48.176;16.414;2023-02-15T00:21:37;27.08;;;16.80;;
61978;SDS011;47938;48.176;16.414;2023-02-15T00:24:04;29.60;;;17.40;;
61978;SDS011;47938;48.176;16.414;2023-02-15T00:26:31;25.40;;;16.45;;
61978;SDS011;47938;48.176;16.414;2023-02-15T00:28:57;23.95;;;16.20;;
61978;SDS011;47938;48.176;16.414;2023-02-15T00:31:23;25.95;;;16.88;;
61978;SDS011;47938;48.176;16.414;2023-02-15T00:33:48;22.38;;;14.80;;
61978;SDS011;47938;48.176;16.414;2023-02-15T00:36:14;26.35;;;15.63;;
61978;SDS011;47938;48.176;16.414;2023-02-15T00:38:40;31.85;;;17.45;;
61978;SDS011;47938;48.176;16.414;2023-02-15T00:41:06;29.73;;;16.85;;
61978;SDS011;47938;48.176;16.414;2023-02-15T00:43:33;25.63;;;16.20;;
61978;SDS011;47938;48.176;16.414;2023-02-15T00:45:59;24.63;;;17.02;;
61978;SDS011;47938;48.176;16.414;2023-02-15T00:48:25;35.97;;;18.15;;
61978;SDS011;47938;48.176;16.414;2023-02-15T00:50:55;26.50;;;17.23;;
61978;SDS011;47938;48.176;16.414;2023-02-15T00:53:23;27.52;;;17.60;;
61978;SDS011;47938;48.176;16.414;2023-02-15T00:55:49;25.35;;;16.83;;
61978;SDS011;47938;48.176;16.414;2023-02-15T00:58:15;25.52;;;17.05;;
61978;SDS011;47938;48.176;16.414;2023-02-15T01:00:42;27.13;;;16.90;;
61978;SDS011;47938;48.176;16.414;2023-02-15T01:03:09;27.95;;;17.95;;
61978;SDS011;47938;48.176;16.414;2023-02-15T01:05:35;31.33;;;18.77;;
61978;SDS011;47938;48.176;16.414;2023-02-15T01:08:01;28.35;;;16.98;;
61978;SDS011;47938;48.176;16.414;2023-02-15T01:10:27;28.55;;;17.58;;
61978;SDS011;47938;48.176;16.414;2023-02-15T01:12:53;23.98;;;17.00;;
61978;SDS011;47938;48.176;16.414;2023-02-15T01:15:20;26.65;;;18.50;;
61978;SDS011;47938;48.176;16.414;2023-02-15T01:17:45;33.78;;;18.77;;
61978;SDS011;47938;48.176;16.414;2023-02-15T01:20:11;26.13;;;17.42;;
61978;SDS011;47938;48.176;16.414;2023-02-15T01:22:37;28.48;;;17.80;;
61978;SDS011;47938;48.176;16.414;2023-02-15T01:25:03;25.10;;;16.50;;
61978;SDS011;47938;48.176;16.414;2023-02-15T01:27:29;26.20;;;17.35;;
61978;SDS011;47938;48.176;16.414;2023-02-15T01:29:54;26.95;;;17.55;;
61978;SDS011;47938;48.176;16.414;2023-02-15T01:32:20;31.85;;;18.83;;
61978;SDS011;47938;48.176;16.414;2023-02-15T01:34:46;29.15;;;18.65;;
61978;SDS011;47938;48.176;16.414;2023-02-15T01:37:11;25.88;;;17.67;;
61978;SDS011;47938;48.176;16.414;2023-02-15T01:39:37;27.88;;;18.30;;
61978;SDS011;47938;48.176;16.414;2023-02-15T01:42:02;26.95;;;17.75;;
61978;SDS011;47938;48.176;16.414;2023-02-15T01:49:45;38.10;;;19.52;;
61978;SDS011;47938;48.176;16.414;2023-02-15T01:52:13;42.45;;;20.27;;
61978;SDS011;47938;48.176;16.414;2023-02-15T01:54:41;29.40;;;18.55;;
61978;SDS011;47938;48.176;16.414;2023-02-15T01:57:12;31.48;;;18.58;;
61978;SDS011;47938;48.176;16.414;2023-02-15T02:02:09;30.15;;;18.10;;
61978;SDS011;47938;48.176;16.414;2023-02-15T02:04:40;30.70;;;18.52;;
61978;SDS011;47938;48.176;16.414;2023-02-15T02:07:18;32.50;;;18.77;;
61978;SDS011;47938;48.176;16.414;2023-02-15T02:09:46;33.60;;;18.75;;
61978;SDS011;47938;48.176;16.414;2023-02-15T02:12:13;27.60;;;18.08;;
61978;SDS011;47938;48.176;16.414;2023-02-15T02:14:40;29.42;;;18.20;;
61978;SDS011;47938;48.176;16.414;2023-02-15T02:17:09;33.90;;;19.08;;
61978;SDS011;47938;48.176;16.414;2023-02-15T02:44:48;29.85;;;18.55;;
61978;SDS011;47938;48.176;16.414;2023-02-15T02:47:59;31.40;;;18.65;;
61978;SDS011;47938;48.176;16.414;2023-02-15T02:50:26;29.02;;;17.63;;
61978;SDS011;47938;48.176;16.414;2023-02-15T02:52:54;29.70;;;18.42;;
61978;SDS011;47938;48.176;16.414;2023-02-15T02:58:06;33.35;;;19.20;;
61978;SDS011;47938;48.176;16.414;2023-02-15T03:03:27;35.88;;;19.13;;
61978;SDS011;47938;48.176;16.414;2023-02-15T03:05:58;30.10;;;18.63;;
61978;SDS011;47938;48.176;16.414;2023-02-15T03:08:30;30.73;;;18.60;;
61978;SDS011;47938;48.176;16.414;2023-02-15T03:11:01;32.00;;;20.45;;
61978;SDS011;47938;48.176;16.414;2023-02-15T03:13:29;32.47;;;20.42;;
61978;SDS011;47938;48.176;16.414;2023-02-15T03:15:56;32.85;;;20.15;;
61978;SDS011;47938;48.176;16.414;2023-02-15T03:18:24;41.92;;;20.67;;
61978;SDS011;47938;48.176;16.414;2023-02-15T03:20:53;33.60;;;20.13;;
61978;SDS011;47938;48.176;16.414;2023-02-15T03:23:21;33.25;;;20.73;;
61978;SDS011;47938;48.176;16.414;2023-02-15T03:25:54;31.10;;;19.33;;
61978;SDS011;47938;48.176;16.414;2023-02-15T03:28:25;31.00;;;19.45;;
61978;SDS011;47938;48.176;16.414;2023-02-15T03:30:59;31.92;;;19.67;;
61978;SDS011;47938;48.176;16.414;2023-02-15T03:33:28;33.80;;;20.83;;
61978;SDS011;47938;48.176;16.414;2023-02-15T03:36:03;31.45;;;19.80;;
61978;SDS011;47938;48.176;16.414;2023-02-15T03:38:37;30.02;;;20.17;;
61978;SDS011;47938;48.176;16.414;2023-02-15T03:41:09;32.75;;;19.63;;
61978;SDS011;47938;48.176;16.414;2023-02-15T03:43:44;32.53;;;19.15;;
61978;SDS011;47938;48.176;16.414;2023-02-15T03:55:29;32.63;;;18.95;;
61978;SDS011;47938;48.176;16.414;2023-02-15T03:57:55;30.83;;;19.83;;
61978;SDS011;47938;48.176;16.414;2023-02-15T04:00:22;29.83;;;19.58;;
61978;SDS011;47938;48.176;16.414;2023-02-15T04:02:55;31.00;;;19.50;;
61978;SDS011;47938;48.176;16.414;2023-02-15T04:05:30;30.02;;;18.65;;
61978;SDS011;47938;48.176;16.414;2023-02-15T04:07:55;28.80;;;18.25;;
61978;SDS011;47938;48.176;16.414;2023-02-15T04:10:21;30.25;;;19.27;;
61978;SDS011;47938;48.176;16.414;2023-02-15T04:12:47;33.13;;;19.33;;
61978;SDS011;47938;48.176;16.414;2023-02-15T04:15:12;29.05;;;19.20;;
61978;SDS011;47938;48.176;16.414;2023-02-15T04:17:38;33.10;;;19.52;;
61978;SDS011;47938;48.176;16.414;2023-02-15T04:20:04;32.20;;;19.25;;
61978;SDS011;47938;48.176;16.414;2023-02-15T04:22:30;32.65;;;20.52;;
61978;SDS011;47938;48.176;16.414;2023-02-15T04:24:55;34.80;;;20.75;;
61978;SDS011;47938;48.176;16.414;2023-02-15T04:27:21;30.15;;;18.92;;
61978;SDS011;47938;48.176;16.414;2023-02-15T04:29:46;34.05;;;20.25;;
61978;SDS011;47938;48.176;16.414;2023-02-15T04:32:12;31.77;;;20.75;;
61978;SDS011;47938;48.176;16.414;2023-02-15T04:34:38;30.85;;;20.10;;
61978;SDS011;47938;48.176;16.414;2023-02-15T04:37:03;34.90;;;20.83;;
61978;SDS011;47938;48.176;16.414;2023-02-15T04:39:29;33.00;;;19.73;;
61978;SDS011;47938;48.176;16.414;2023-02-15T04:41:54;31.48;;;20.02;;
61978;SDS011;47938;48.176;16.414;2023-02-15T04:44:20;33.90;;;19.33;;
61978;SDS011;47938;48.176;16.414;2023-02-15T04:46:45;34.50;;;20.42;;
61978;SDS011;47938;48.176;16.414;2023-02-15T04:49:11;30.00;;;20.25;;
61978;SDS011;47938;48.176;16.414;2023-02-15T04:51:37;33.67;;;20.08;;
61978;SDS011;47938;48.176;16.414;2023-02-15T04:54:02;36.45;;;20.75;;
61978;SDS011;47938;48.176;16.414;2023-02-15T04:56:28;36.03;;;21.73;;
61978;SDS011;47938;48.176;16.414;2023-02-15T04:58:54;34.75;;;20.25;;
61978;SDS011;47938;48.176;16.414;2023-02-15T05:01:19;32.97;;;20.50;;
61978;SDS011;47938;48.176;16.414;2023-02-15T05:03:45;38.58;;;22.60;;
61978;SDS011;47938;48.176;16.414;2023-02-15T05:06:10;35.38;;;19.98;;
61978;SDS011;47938;48.176;16.414;2023-02-15T05:08:36;34.10;;;21.77;;
61978;SDS011;47938;48.176;16.414;2023-02-15T05:11:02;35.60;;;20.70;;
61978;SDS011;47938;48.176;16.414;2023-02-15T05:13:27;32.92;;;22.00;;
61978;SDS011;47938;48.176;16.414;2023-02-15T05:15:53;33.15;;;22.05;;
61978;SDS011;47938;48.176;16.414;2023-02-15T05:18:19;36.10;;;21.45;;
61978;SDS011;47938;48.176;16.414;2023-02-15T05:20:46;34.75;;;21.73;;
61978;SDS011;47938;48.176;16.414;2023-02-15T05:23:12;35.80;;;21.25;;
61978;SDS011;47938;48.176;16.414;2023-02-15T05:25:38;32.20;;;21.02;;
61978;SDS011;47938;48.176;16.414;2023-02-15T05:28:04;37.83;;;20.15;;
61978;SDS011;47938;48.176;16.414;2023-02-15T05:30:30;32.00;;;20.50;;
61978;SDS011;47938;48.176;16.414;2023-02-15T05:32:55;51.17;;;21.65;;
61978;SDS011;47938;48.176;16.414;2023-02-15T05:35:21;41.03;;;21.80;;
61978;SDS011;47938;48.176;16.414;2023-02-15T05:37:47;34.45;;;20.75;;
61978;SDS011;47938;48.176;16.414;2023-02-15T05:40:12;31.77;;;20.58;;
61978;SDS011;47938;48.176;16.414;2023-02-15T05:42:38;34.15;;;21.10;;
61978;SDS011;47938;48.176;16.414;2023-02-15T05:45:03;35.17;;;21.33;;
61978;SDS011;47938;48.176;16.414;2023-02-15T05:47:29;30.58;;;20.42;;
61978;SDS011;47938;48.176;16.414;2023-02-15T05:49:55;34.60;;;20.48;;
61978;SDS011;47938;48.176;16.414;2023-02-15T05:52:21;31.88;;;19.65;;
61978;SDS011;47938;48.176;16.414;2023-02-15T05:54:46;32.85;;;19.98;;
61978;SDS011;47938;48.176;16.414;2023-02-15T05:57:12;31.35;;;18.95;;
61978;SDS011;47938;48.176;16.414;2023-02-15T05:59:37;34.72;;;20.27;;
61978;SDS011;47938;48.176;16.414;2023-02-15T06:02:03;34.80;;;20.42;;
61978;SDS011;47938;48.176;16.414;2023-02-15T06:04:29;31.73;;;19.50;;
61978;SDS011;47938;48.176;16.414;2023-02-15T06:06:54;34.47;;;20.70;;
61978;SDS011;47938;48.176;16.414;2023-02-15T06:09:20;33.53;;;19.80;;
61978;SDS011;47938;48.176;16.414;2023-02-15T06:11:45;31.70;;;19.15;;
61978;SDS011;47938;48.176;16.414;2023-02-15T06:14:11;32.00;;;20.38;;
61978;SDS011;47938;48.176;16.414;2023-02-15T06:16:37;34.28;;;20.75;;
61978;SDS011;47938;48.176;16.414;2023-02-15T06:19:02;32.17;;;20.90;;
61978;SDS011;47938;48.176;16.414;2023-02-15T06:21:28;37.70;;;20.67;;
61978;SDS011;47938;48.176;16.414;2023-02-15T06:23:55;37.55;;;18.85;;
61978;SDS011;47938;48.176;16.414;2023-02-15T06:26:20;32.63;;;19.35;;
61978;SDS011;47938;48.176;16.414;2023-02-15T06:28:46;34.42;;;20.95;;
61978;SDS011;47938;48.176;16.414;2023-02-15T06:31:11;32.13;;;20.25;;
61978;SDS011;47938;48.176;16.414;2023-02-15T06:33:37;33.70;;;20.27;;
61978;SDS011;47938;48.176;16.414;2023-02-15T06:36:03;30.73;;;19.42;;
61978;SDS011;47938;48.176;16.414;2023-02-15T06:38:28;30.92;;;19.40;;
61978;SDS011;47938;48.176;16.414;2023-02-15T06:40:54;31.73;;;19.65;;
61978;SDS011;47938;48.176;16.414;2023-02-15T06:43:20;39.55;;;19.08;;
61978;SDS011;47938;48.176;16.414;2023-02-15T06:45:45;31.67;;;19.90;;
61978;SDS011;47938;48.176;16.414;2023-02-15T06:48:11;30.10;;;18.00;;
61978;SDS011;47938;48.176;16.414;2023-02-15T06:50:37;33.17;;;19.58;;
61978;SDS011;47938;48.176;16.414;2023-02-15T06:53:02;34.05;;;18.73;;
61978;SDS011;47938;48.176;16.414;2023-02-15T06:55:28;30.75;;;19.75;;
61978;SDS011;47938;48.176;16.414;2023-02-15T06:57:54;29.75;;;18.27;;
61978;SDS011;47938;48.176;16.414;2023-02-15T07:00:20;35.45;;;17.27;;
61978;SDS011;47938;48.176;16.414;2023-02-15T07:02:45;32.80;;;18.13;;
61978;SDS011;47938;48.176;16.414;2023-02-15T07:05:11;31.10;;;18.17;;
61978;SDS011;47938;48.176;16.414;2023-02-15T07:07:37;32.05;;;19.15;;
61978;SDS011;47938;48.176;16.414;2023-02-15T07:10:02;32.42;;;17.67;;
61978;SDS011;47938;48.176;16.414;2023-02-15T07:12:28;34.13;;;17.83;;
61978;SDS011;47938;48.176;16.414;2023-02-15T07:14:54;26.73;;;17.52;;
61978;SDS011;47938;48.176;16.414;2023-02-15T07:17:19;29.85;;;19.15;;
61978;SDS011;47938;48.176;16.414;2023-02-15T07:19:45;28.48;;;16.95;;
61978;SDS011;47938;48.176;16.414;2023-02-15T07:22:11;27.92;;;17.10;;
61978;SDS011;47938;48.176;16.414;2023-02-15T07:24:36;30.15;;;16.50;;
61978;SDS011;47938;48.176;16.414;2023-02-15T07:27:02;33.33;;;18.42;;
61978;SDS011;47938;48.176;16.414;2023-02-15T07:29:28;44.88;;;19.63;;
61978;SDS011;47938;48.176;16.414;2023-02-15T07:31:53;29.38;;;18.08;;
61978;SDS011;47938;48.176;16.414;2023-02-15T07:34:19;29.90;;;18.33;;
61978;SDS011;47938;48.176;16.414;2023-02-15T07:36:45;31.50;;;18.55;;
61978;SDS011;47938;48.176;16.414;2023-02-15T07:39:11;28.85;;;17.75;;
61978;SDS011;47938;48.176;16.414;2023-02-15T07:41:36;28.30;;;17.92;;
61978;SDS011;47938;48.176;16.414;2023-02-15T07:44:02;34.78;;;18.52;;
61978;SDS011;47938;48.176;16.414;2023-02-15T07:46:28;27.23;;;17.98;;
61978;SDS011;47938;48.176;16.414;2023-02-15T07:48:53;31.67;;;17.63;;
61978;SDS011;47938;48.176;16.414;2023-02-15T07:51:19;28.23;;;17.23;;
61978;SDS011;47938;48.176;16.414;2023-02-15T07:53:45;29.80;;;18.80;;
61978;SDS011;47938;48.176;16.414;2023-02-15T07:56:11;30.58;;;17.10;;
61978;SDS011;47938;48.176;16.414;2023-02-15T07:58:38;24.95;;;16.10;;
61978;SDS011;47938;48.176;16.414;2023-02-15T08:01:03;31.50;;;16.08;;
61978;SDS011;47938;48.176;16.414;2023-02-15T08:03:29;29.92;;;18.83;;
61978;SDS011;47938;48.176;16.414;2023-02-15T08:05:56;29.92;;;19.60;;
61978;SDS011;47938;48.176;16.414;2023-02-15T08:08:22;29.08;;;17.70;;
61978;SDS011;47938;48.176;16.414;2023-02-15T08:10:48;24.70;;;16.50;;
61978;SDS011;47938;48.176;16.414;2023-02-15T08:13:13;31.70;;;17.17;;
61978;SDS011;47938;48.176;16.414;2023-02-15T08:15:39;30.50;;;17.00;;
61978;SDS011;47938;48.176;16.414;2023-02-15T08:18:05;26.60;;;16.83;;
61978;SDS011;47938;48.176;16.414;2023-02-15T08:20:30;23.55;;;15.00;;
61978;SDS011;47938;48.176;16.414;2023-02-15T08:22:56;26.88;;;16.42;;
61978;SDS011;47938;48.176;16.414;2023-02-15T08:25:22;25.80;;;16.13;;
61978;SDS011;47938;48.176;16.414;2023-02-15T08:27:47;27.67;;;17.05;;
61978;SDS011;47938;48.176;16.414;2023-02-15T08:30:14;25.83;;;16.83;;
61978;SDS011;47938;48.176;16.414;2023-02-15T08:32:40;27.77;;;16.55;;
61978;SDS011;47938;48.176;16.414;2023-02-15T08:35:05;31.27;;;16.80;;
61978;SDS011;47938;48.176;16.414;2023-02-15T08:37:31;27.13;;;16.98;;
61978;SDS011;47938;48.176;16.414;2023-02-15T08:39:57;33.28;;;19.13;;
61978;SDS011;47938;48.176;16.414;2023-02-15T08:42:22;26.70;;;17.17;;
61978;SDS011;47938;48.176;16.414;2023-02-15T08:44:48;30.75;;;18.50;;
61978;SDS011;47938;48.176;16.414;2023-02-15T08:47:13;26.70;;;16.60;;
61978;SDS011;47938;48.176;16.414;2023-02-15T08:49:39;28.25;;;17.08;;
61978;SDS011;47938;48.176;16.414;2023-02-15T08:52:05;31.85;;;17.85;;
61978;SDS011;47938;48.176;16.414;2023-02-15T08:54:30;26.20;;;17.63;;
61978;SDS011;47938;48.176;16.414;2023-02-15T08:56:56;25.35;;;17.23;;
61978;SDS011;47938;48.176;16.414;2023-02-15T08:59:22;34.90;;;18.63;;
61978;SDS011;47938;48.176;16.414;2023-02-15T09:01:48;32.92;;;18.23;;
61978;SDS011;47938;48.176;16.414;2023-02-15T09:04:15;30.60;;;18.25;;
61978;SDS011;47938;48.176;16.414;2023-02-15T09:06:42;101.85;;;25.95;;
61978;SDS011;47938;48.176;16.414;2023-02-15T09:09:09;66.93;;;20.75;;
61978;SDS011;47938;48.176;16.414;2023-02-15T09:11:37;37.20;;;19.02;;
61978;SDS011;47938;48.176;16.414;2023-02-15T09:14:05;27.45;;;17.45;;
61978;SDS011;47938;48.176;16.414;2023-02-15T09:16:37;27.17;;;18.13;;
61978;SDS011;47938;48.176;16.414;2023-02-15T09:19:03;28.10;;;17.58;;
61978;SDS011;47938;48.176;16.414;2023-02-15T09:21:30;25.40;;;16.63;;
61978;SDS011;47938;48.176;16.414;2023-02-15T09:23:58;29.85;;;16.95;;
61978;SDS011;47938;48.176;16.414;2023-02-15T09:26:25;27.27;;;17.58;;
61978;SDS011;47938;48.176;16.414;2023-02-15T09:28:53;31.05;;;18.13;;
61978;SDS011;47938;48.176;16.414;2023-02-15T09:31:22;28.70;;;17.98;;
61978;SDS011;47938;48.176;16.414;2023-02-15T09:33:49;31.30;;;17.75;;
61978;SDS011;47938;48.176;16.414;2023-02-15T09:36:17;29.17;;;17.45;;
61978;SDS011;47938;48.176;16.414;2023-02-15T09:38:50;26.55;;;17.10;;
61978;SDS011;47938;48.176;16.414;2023-02-15T09:47:31;28.38;;;16.90;;
61978;SDS011;47938;48.176;16.414;2023-02-15T09:58:39;36.33;;;18.90;;
61978;SDS011;47938;48.176;16.414;2023-02-15T10:07:00;25.65;;;16.60;;
61978;SDS011;47938;48.176;16.414;2023-02-15T10:09:36;29.48;;;18.05;;
61978;SDS011;47938;48.176;16.414;2023-02-15T10:15:29;23.00;;;15.57;;
61978;SDS011;47938;48.176;16.414;2023-02-15T10:18:45;29.25;;;17.88;;
61978;SDS011;47938;48.176;16.414;2023-02-15T10:20:58;27.85;;;17.38;;
61978;SDS011;47938;48.176;16.414;2023-02-15T10:26:21;28.05;;;17.08;;
61978;SDS011;47938;48.176;16.414;2023-02-15T10:28:49;31.42;;;18.05;;
61978;SDS011;47938;48.176;16.414;2023-02-15T10:31:28;24.40;;;17.10;;
61978;SDS011;47938;48.176;16.414;2023-02-15T10:34:16;27.25;;;15.90;;
61978;SDS011;47938;48.176;16.414;2023-02-15T10:40:28;29.77;;;17.83;;
61978;SDS011;47938;48.176;16.414;2023-02-15T10:45:37;25.73;;;16.55;;
61978;SDS011;47938;48.176;16.414;2023-02-15T10:50:56;24.23;;;15.90;;
61978;SDS011;47938;48.176;16.414;2023-02-15T11:07:25;25.70;;;16.98;;
61978;SDS011;47938;48.176;16.414;2023-02-15T11:10:00;29.52;;;18.52;;
61978;SDS011;47938;48.176;16.414;2023-02-15T11:12:44;25.02;;;16.10;;
61978;SDS011;47938;48.176;16.414;2023-02-15T11:15:15;27.55;;;16.67;;
61978;SDS011;47938;48.176;16.414;2023-02-15T11:17:47;27.30;;;17.42;;
61978;SDS011;47938;48.176;16.414;2023-02-15T11:22:52;29.10;;;17.13;;
61978;SDS011;47938;48.176;16.414;2023-02-15T11:25:28;25.98;;;16.73;;
61978;SDS011;47938;48.176;16.414;2023-02-15T11:27:58;27.20;;;17.40;;
61978;SDS011;47938;48.176;16.414;2023-02-15T11:30:28;26.25;;;16.55;;
61978;SDS011;47938;48.176;16.414;2023-02-15T11:33:03;34.33;;;17.25;;
61978;SDS011;47938;48.176;16.414;2023-02-15T11:38:33;32.33;;;17.63;;
61978;SDS011;47938;48.176;16.414;2023-02-15T11:41:07;29.98;;;17.98;;
61978;SDS011;47938;48.176;16.414;2023-02-15T11:43:54;26.73;;;16.60;;
61978;SDS011;47938;48.176;16.414;2023-02-15T11:46:32;32.55;;;16.38;;
61978;SDS011;47938;48.176;16.414;2023-02-15T11:48:57;27.13;;;17.40;;
61978;SDS011;47938;48.176;16.414;2023-02-15T11:51:23;32.53;;;17.80;;
61978;SDS011;47938;48.176;16.414;2023-02-15T11:53:50;33.28;;;17.95;;
61978;SDS011;47938;48.176;16.414;2023-02-15T11:56:17;28.50;;;16.90;;
61978;SDS011;47938;48.176;16.414;2023-02-15T11:58:57;30.02;;;16.17;;
61978;SDS011;47938;48.176;16.414;2023-02-15T12:01:33;38.67;;;18.75;;
61978;SDS011;47938;48.176;16.414;2023-02-15T12:06:58;33.25;;;17.13;;
61978;SDS011;47938;48.176;16.414;2023-02-15T12:14:57;26.93;;;17.00;;
61978;SDS011;47938;48.176;16.414;2023-02-15T12:17:26;30.40;;;17.85;;
61978;SDS011;47938;48.176;16.414;2023-02-15T12:19:59;24.92;;;16.92;;
61978;SDS011;47938;48.176;16.414;2023-02-15T12:22:28;30.60;;;17.25;;
61978;SDS011;47938;48.176;16.414;2023-02-15T12:24:57;31.48;;;18.40;;
61978;SDS011;47938;48.176;16.414;2023-02-15T12:27:29;29.67;;;18.05;;
61978;SDS011;47938;48.176;16.414;2023-02-15T12:30:01;30.02;;;18.38;;
61978;SDS011;47938;48.176;16.414;2023-02-15T12:32:56;30.85;;;18.67;;
61978;SDS011;47938;48.176;16.414;2023-02-15T12:35:38;32.90;;;17.63;;
61978;SDS011;47938;48.176;16.414;2023-02-15T12:38:05;30.25;;;17.73;;
61978;SDS011;47938;48.176;16.414;2023-02-15T12:40:34;30.80;;;19.38;;
61978;SDS011;47938;48.176;16.414;2023-02-15T12:43:00;38.47;;;20.20;;
61978;SDS011;47938;48.176;16.414;2023-02-15T12:45:33;26.55;;;18.33;;
61978;SDS011;47938;48.176;16.414;2023-02-15T12:50:38;31.90;;;19.00;;
61978;SDS011;47938;48.176;16.414;2023-02-15T12:53:12;32.25;;;19.10;;
61978;SDS011;47938;48.176;16.414;2023-02-15T12:56:15;31.10;;;19.10;;
61978;SDS011;47938;48.176;16.414;2023-02-15T13:01:03;28.80;;;17.40;;
61978;SDS011;47938;48.176;16.414;2023-02-15T13:03:35;30.63;;;17.63;;
61978;SDS011;47938;48.176;16.414;2023-02-15T13:06:19;32.47;;;18.13;;
61978;SDS011;47938;48.176;16.414;2023-02-15T13:08:47;28.38;;;17.92;;
61978;SDS011;47938;48.176;16.414;2023-02-15T13:11:35;28.23;;;18.67;;
61978;SDS011;47938;48.176;16.414;2023-02-15T13:14:02;31.45;;;17.55;;
61978;SDS011;47938;48.176;16.414;2023-02-15T13:16:41;31.13;;;17.65;;
61978;SDS011;47938;48.176;16.414;2023-02-15T13:19:10;30.13;;;17.73;;
61978;SDS011;47938;48.176;16.414;2023-02-15T13:21:46;28.08;;;19.13;;
61978;SDS011;47938;48.176;16.414;2023-02-15T13:24:35;38.08;;;19.95;;
61978;SDS011;47938;48.176;16.414;2023-02-15T13:27:01;39.35;;;18.67;;
61978;SDS011;47938;48.176;16.414;2023-02-15T13:29:28;38.33;;;20.30;;
61978;SDS011;47938;48.176;16.414;2023-02-15T13:32:04;31.67;;;19.83;;
61978;SDS011;47938;48.176;16.414;2023-02-15T13:34:46;32.75;;;18.05;;
61978;SDS011;47938;48.176;16.414;2023-02-15T13:37:20;30.23;;;17.83;;
61978;SDS011;47938;48.176;16.414;2023-02-15T13:40:12;31.75;;;17.60;;
61978;SDS011;47938;48.176;16.414;2023-02-15T13:42:42;30.40;;;17.65;;
61978;SDS011;47938;48.176;16.414;2023-02-15T13:45:24;30.08;;;18.15;;
61978;SDS011;47938;48.176;16.414;2023-02-15T13:50:52;28.83;;;17.05;;
61978;SDS011;47938;48.176;16.414;2023-02-15T13:53:46;30.60;;;18.40;;
61978;SDS011;47938;48.176;16.414;2023-02-15T13:56:21;29.98;;;19.33;;
61978;SDS011;47938;48.176;16.414;2023-02-15T13:59:14;28.55;;;18.73;;
61978;SDS011;47938;48.176;16.414;2023-02-15T14:10:06;32.70;;;17.90;;
61978;SDS011;47938;48.176;16.414;2023-02-15T14:28:51;27.33;;;17.27;;
61978;SDS011;47938;48.176;16.414;2023-02-15T14:31:32;28.63;;;17.10;;
61978;SDS011;47938;48.176;16.414;2023-02-15T14:34:01;28.30;;;18.00;;
61978;SDS011;47938;48.176;16.414;2023-02-15T14:36:27;28.45;;;17.25;;
61978;SDS011;47938;48.176;16.414;2023-02-15T14:41:27;29.30;;;19.70;;
61978;SDS011;47938;48.176;16.414;2023-02-15T14:53:54;30.98;;;19.13;;
61978;SDS011;47938;48.176;16.414;2023-02-15T14:58:36;30.38;;;18.67;;
61978;SDS011;47938;48.176;16.414;2023-02-15T15:01:06;31.55;;;18.50;;
61978;SDS011;47938;48.176;16.414;2023-02-15T15:06:01;32.97;;;18.98;;
61978;SDS011;47938;48.176;16.414;2023-02-15T15:08:31;30.92;;;18.52;;
61978;SDS011;47938;48.176;16.414;2023-02-15T15:13:56;34.42;;;21.05;;
61978;SDS011;47938;48.176;16.414;2023-02-15T15:16:25;37.35;;;20.20;;
61978;SDS011;47938;48.176;16.414;2023-02-15T15:18:54;36.97;;;20.58;;
61978;SDS011;47938;48.176;16.414;2023-02-15T15:44:06;34.28;;;20.02;;
61978;SDS011;47938;48.176;16.414;2023-02-15T15:49:14;37.70;;;20.92;;
61978;SDS011;47938;48.176;16.414;2023-02-15T15:51:42;35.80;;;21.35;;
61978;SDS011;47938;48.176;16.414;2023-02-15T15:54:14;35.15;;;20.80;;
61978;SDS011;47938;48.176;16.414;2023-02-15T15:56:40;36.22;;;20.77;;
61978;SDS011;47938;48.176;16.414;2023-02-15T15:59:18;39.42;;;21.08;;
61978;SDS011;47938;48.176;16.414;2023-02-15T16:01:47;34.55;;;21.75;;
61978;SDS011;47938;48.176;16.414;2023-02-15T16:04:14;35.97;;;20.27;;
61978;SDS011;47938;48.176;16.414;2023-02-15T16:06:49;35.17;;;20.55;;
61978;SDS011;47938;48.176;16.414;2023-02-15T16:09:18;43.22;;;23.50;;
61978;SDS011;47938;48.176;16.414;2023-02-15T16:11:48;34.47;;;21.83;;
61978;SDS011;47938;48.176;16.414;2023-02-15T16:14:20;38.92;;;23.17;;
61978;SDS011;47938;48.176;16.414;2023-02-15T16:17:15;38.78;;;23.05;;
61978;SDS011;47938;48.176;16.414;2023-02-15T16:19:45;41.25;;;24.95;;
61978;SDS011;47938;48.176;16.414;2023-02-15T16:22:21;41.58;;;23.23;;
61978;SDS011;47938;48.176;16.414;2023-02-15T16:27:47;46.03;;;24.92;;
61978;SDS011;47938;48.176;16.414;2023-02-15T16:30:30;41.75;;;22.73;;
61978;SDS011;47938;48.176;16.414;2023-02-15T16:33:10;39.78;;;23.85;;
61978;SDS011;47938;48.176;16.414;2023-02-15T16:36:01;42.40;;;23.50;;
61978;SDS011;47938;48.176;16.414;2023-02-15T16:39:17;55.75;;;25.52;;
61978;SDS011;47938;48.176;16.414;2023-02-15T16:41:30;46.10;;;25.27;;
61978;SDS011;47938;48.176;16.414;2023-02-15T16:43:57;47.65;;;25.20;;
61978;SDS011;47938;48.176;16.414;2023-02-15T16:46:29;46.72;;;25.35;;
61978;SDS011;47938;48.176;16.414;2023-02-15T16:48:58;47.35;;;24.48;;
61978;SDS011;47938;48.176;16.414;2023-02-15T16:51:29;47.08;;;26.42;;
61978;SDS011;47938;48.176;16.414;2023-02-15T16:53:59;47.80;;;25.63;;
61978;SDS011;47938;48.176;16.414;2023-02-15T16:56:31;45.67;;;26.83;;
61978;SDS011;47938;48.176;16.414;2023-02-15T16:58:57;52.13;;;26.88;;
61978;SDS011;47938;48.176;16.414;2023-02-15T17:01:25;52.80;;;26.50;;
61978;SDS011;47938;48.176;16.414;2023-02-15T17:06:57;44.88;;;26.92;;
61978;SDS011;47938;48.176;16.414;2023-02-15T17:09:31;46.88;;;25.42;;
61978;SDS011;47938;48.176;16.414;2023-02-15T17:11:58;43.03;;;24.67;;
61978;SDS011;47938;48.176;16.414;2023-02-15T17:14:27;45.30;;;24.83;;
61978;SDS011;47938;48.176;16.414;2023-02-15T17:17:10;43.10;;;24.13;;
61978;SDS011;47938;48.176;16.414;2023-02-15T17:19:49;40.70;;;24.23;;
61978;SDS011;47938;48.176;16.414;2023-02-15T17:22:19;44.25;;;23.63;;
61978;SDS011;47938;48.176;16.414;2023-02-15T17:24:56;44.67;;;23.85;;
61978;SDS011;47938;48.176;16.414;2023-02-15T17:27:24;41.35;;;22.52;;
61978;SDS011;47938;48.176;16.414;2023-02-15T17:32:26;42.85;;;24.85;;
61978;SDS011;47938;48.176;16.414;2023-02-15T17:37:44;47.45;;;24.48;;
61978;SDS011;47938;48.176;16.414;2023-02-15T17:40:24;40.95;;;24.75;;
61978;SDS011;47938;48.176;16.414;2023-02-15T17:42:51;47.83;;;24.33;;